sensor_id;sensor_type;location;lat;lon;timestamp;temperature;humidity
3275;DHT22;1649;53.672;10.064;2024-02-28T00:01:47;3.80;99.90
3275;DHT22;1649;53.672;10.064;2024-02-28T00:04:12;3.80;99.90
3275;DHT22;1649;53.672;10.064;2024-02-28T00:06:38;3.80;99.90
3275;DHT22;1649;53.672;10.064;2024-02-28T00:09:05;3.80;99.90
3275;DHT22;1649;53.672;10.064;2024-02-28T00:11:30;3.80;99.90
3275;DHT22;1649;53.672;10.064;2024-02-28T00:13:56;3.80;99.90
3275;DHT22;1649;53.672;10.064;2024-02-28T00:16:21;3.70;99.90
3275;DHT22;1649;53.672;10.064;2024-02-28T00:18:46;3.70;99.90
3275;DHT22;1649;53.672;10.064;2024-02-28T00:21:12;3.70;99.90
3275;DHT22;1649;53.672;10.064;2024-02-28T00:23:37;3.70;99.90
3275;DHT22;1649;53.672;10.064;2024-02-28T00:26:03;3.70;99.90
3275;DHT22;1649;53.672;10.064;2024-02-28T00:28:28;3.60;99.90
3275;DHT22;1649;53.672;10.064;2024-02-28T00:30:54;3.60;99.90
3275;DHT22;1649;53.672;10.064;2024-02-28T00:33:19;3.50;99.90
3275;DHT22;1649;53.672;10.064;2024-02-28T00:35:45;3.40;99.90
3275;DHT22;1649;53.672;10.064;2024-02-28T00:38:10;3.40;99.90
3275;DHT22;1649;53.672;10.064;2024-02-28T00:40:36;3.40;99.90
3275;DHT22;1649;53.672;10.064;2024-02-28T00:43:01;3.40;99.90
3275;DHT22;1649;53.672;10.064;2024-02-28T00:45:27;3.40;99.90
3275;DHT22;1649;53.672;10.064;2024-02-28T00:47:53;3.40;99.90
3275;DHT22;1649;53.672;10.064;2024-02-28T00:50:20;3.40;99.90
3275;DHT22;1649;53.672;10.064;2024-02-28T00:52:45;3.50;99.90
3275;DHT22;1649;53.672;10.064;2024-02-28T00:55:11;3.50;99.90
3275;DHT22;1649;53.672;10.064;2024-02-28T00:57:36;3.50;99.90
3275;DHT22;1649;53.672;10.064;2024-02-28T01:00:02;3.50;99.90
3275;DHT22;1649;53.672;10.064;2024-02-28T01:02:28;3.50;99.90
3275;DHT22;1649;53.672;10.064;2024-02-28T01:04:53;3.50;99.90
3275;DHT22;1649;53.672;10.064;2024-02-28T01:07:19;3.40;99.90
3275;DHT22;1649;53.672;10.064;2024-02-28T01:09:44;3.40;99.90
3275;DHT22;1649;53.672;10.064;2024-02-28T01:12:10;3.40;99.90
3275;DHT22;1649;53.672;10.064;2024-02-28T01:14:35;3.40;99.90
3275;DHT22;1649;53.672;10.064;2024-02-28T01:17:01;3.40;99.90
3275;DHT22;1649;53.672;10.064;2024-02-28T01:19:26;3.40;99.90
3275;DHT22;1649;53.672;10.064;2024-02-28T01:21:52;3.40;99.90
3275;DHT22;1649;53.672;10.064;2024-02-28T01:24:17;3.40;99.90
3275;DHT22;1649;53.672;10.064;2024-02-28T01:26:42;3.50;99.90
3275;DHT22;1649;53.672;10.064;2024-02-28T01:29:08;3.40;99.90
3275;DHT22;1649;53.672;10.064;2024-02-28T01:31:33;3.40;99.90
3275;DHT22;1649;53.672;10.064;2024-02-28T01:33:59;3.30;99.90
3275;DHT22;1649;53.672;10.064;2024-02-28T01:36:24;3.30;99.90
3275;DHT22;1649;53.672;10.064;2024-02-28T01:38:51;3.20;99.90
3275;DHT22;1649;53.672;10.064;2024-02-28T01:41:17;3.20;99.90
3275;DHT22;1649;53.672;10.064;2024-02-28T01:43:42;3.20;99.90
3275;DHT22;1649;53.672;10.064;2024-02-28T01:46:24;3.20;99.90
3275;DHT22;1649;53.672;10.064;2024-02-28T01:48:51;3.10;99.90
3275;DHT22;1649;53.672;10.064;2024-02-28T01:51:17;3.20;99.90
3275;DHT22;1649;53.672;10.064;2024-02-28T01:53:44;3.20;99.90
3275;DHT22;1649;53.672;10.064;2024-02-28T01:56:11;3.20;99.90
3275;DHT22;1649;53.672;10.064;2024-02-28T01:58:36;3.20;99.90
3275;DHT22;1649;53.672;10.064;2024-02-28T02:01:03;3.20;99.90
3275;DHT22;1649;53.672;10.064;2024-02-28T02:03:28;3.20;99.90
3275;DHT22;1649;53.672;10.064;2024-02-28T02:05:54;3.10;99.90
3275;DHT22;1649;53.672;10.064;2024-02-28T02:08:21;3.10;99.90
3275;DHT22;1649;53.672;10.064;2024-02-28T02:10:46;3.00;99.90
3275;DHT22;1649;53.672;10.064;2024-02-28T02:13:12;3.00;99.90
3275;DHT22;1649;53.672;10.064;2024-02-28T02:15:37;3.00;99.90
3275;DHT22;1649;53.672;10.064;2024-02-28T02:18:04;3.10;99.90
3275;DHT22;1649;53.672;10.064;2024-02-28T02:20:32;3.10;99.90
3275;DHT22;1649;53.672;10.064;2024-02-28T02:22:59;3.10;99.90
3275;DHT22;1649;53.672;10.064;2024-02-28T02:25:25;3.20;99.90
3275;DHT22;1649;53.672;10.064;2024-02-28T02:27:50;3.10;99.90
3275;DHT22;1649;53.672;10.064;2024-02-28T02:30:16;3.10;99.90
3275;DHT22;1649;53.672;10.064;2024-02-28T02:32:41;3.10;99.90
3275;DHT22;1649;53.672;10.064;2024-02-28T02:35:07;3.10;99.90
3275;DHT22;1649;53.672;10.064;2024-02-28T02:37:32;3.10;99.90
3275;DHT22;1649;53.672;10.064;2024-02-28T02:39:59;3.10;99.90
3275;DHT22;1649;53.672;10.064;2024-02-28T02:42:24;3.00;99.90
3275;DHT22;1649;53.672;10.064;2024-02-28T02:44:50;3.00;99.90
3275;DHT22;1649;53.672;10.064;2024-02-28T02:47:16;3.00;99.90
3275;DHT22;1649;53.672;10.064;2024-02-28T02:49:41;3.10;99.90
3275;DHT22;1649;53.672;10.064;2024-02-28T02:52:07;3.10;99.90
3275;DHT22;1649;53.672;10.064;2024-02-28T02:54:32;3.10;99.90
3275;DHT22;1649;53.672;10.064;2024-02-28T02:56:58;3.10;99.90
3275;DHT22;1649;53.672;10.064;2024-02-28T02:59:23;3.10;99.90
3275;DHT22;1649;53.672;10.064;2024-02-28T03:01:49;3.10;99.90
3275;DHT22;1649;53.672;10.064;2024-02-28T03:04:15;3.10;99.90
3275;DHT22;1649;53.672;10.064;2024-02-28T03:06:40;3.10;99.90
3275;DHT22;1649;53.672;10.064;2024-02-28T03:09:06;3.10;99.90
3275;DHT22;1649;53.672;10.064;2024-02-28T03:11:33;3.10;99.90
3275;DHT22;1649;53.672;10.064;2024-02-28T03:14:00;3.10;99.90
3275;DHT22;1649;53.672;10.064;2024-02-28T03:16:26;3.00;99.90
3275;DHT22;1649;53.672;10.064;2024-02-28T03:18:51;3.10;99.90
3275;DHT22;1649;53.672;10.064;2024-02-28T03:21:16;3.10;99.90
3275;DHT22;1649;53.672;10.064;2024-02-28T03:23:42;3.10;99.90
3275;DHT22;1649;53.672;10.064;2024-02-28T03:26:08;3.00;99.90
3275;DHT22;1649;53.672;10.064;2024-02-28T03:28:34;3.00;99.90
3275;DHT22;1649;53.672;10.064;2024-02-28T03:30:59;3.00;99.90
3275;DHT22;1649;53.672;10.064;2024-02-28T03:33:24;3.00;99.90
3275;DHT22;1649;53.672;10.064;2024-02-28T03:35:50;3.00;99.90
3275;DHT22;1649;53.672;10.064;2024-02-28T03:38:16;3.00;99.90
3275;DHT22;1649;53.672;10.064;2024-02-28T03:40:41;2.90;99.90
3275;DHT22;1649;53.672;10.064;2024-02-28T03:43:07;2.90;99.90
3275;DHT22;1649;53.672;10.064;2024-02-28T03:45:36;2.90;99.90
3275;DHT22;1649;53.672;10.064;2024-02-28T03:48:03;2.90;99.90
3275;DHT22;1649;53.672;10.064;2024-02-28T03:50:28;2.80;99.90
3275;DHT22;1649;53.672;10.064;2024-02-28T03:52:53;2.90;99.90
3275;DHT22;1649;53.672;10.064;2024-02-28T03:55:19;2.90;99.90
3275;DHT22;1649;53.672;10.064;2024-02-28T03:57:48;3.00;99.90
3275;DHT22;1649;53.672;10.064;2024-02-28T04:00:14;3.00;99.90
3275;DHT22;1649;53.672;10.064;2024-02-28T04:02:39;2.90;99.90
3275;DHT22;1649;53.672;10.064;2024-02-28T04:05:05;3.00;99.90
3275;DHT22;1649;53.672;10.064;2024-02-28T04:07:31;3.00;99.90
3275;DHT22;1649;53.672;10.064;2024-02-28T04:09:56;2.90;99.90
3275;DHT22;1649;53.672;10.064;2024-02-28T04:12:21;2.90;99.90
3275;DHT22;1649;53.672;10.064;2024-02-28T04:14:47;2.90;99.90
3275;DHT22;1649;53.672;10.064;2024-02-28T04:17:12;2.90;99.90
3275;DHT22;1649;53.672;10.064;2024-02-28T04:19:38;2.90;99.90
3275;DHT22;1649;53.672;10.064;2024-02-28T04:22:04;2.90;99.90
3275;DHT22;1649;53.672;10.064;2024-02-28T04:24:30;2.90;99.90
3275;DHT22;1649;53.672;10.064;2024-02-28T04:26:56;2.80;99.90
3275;DHT22;1649;53.672;10.064;2024-02-28T04:29:23;2.80;99.90
3275;DHT22;1649;53.672;10.064;2024-02-28T04:31:49;2.80;99.90
3275;DHT22;1649;53.672;10.064;2024-02-28T04:34:14;2.70;99.90
3275;DHT22;1649;53.672;10.064;2024-02-28T04:36:40;2.70;99.90
3275;DHT22;1649;53.672;10.064;2024-02-28T04:39:05;2.70;99.90
3275;DHT22;1649;53.672;10.064;2024-02-28T04:41:33;2.70;99.90
3275;DHT22;1649;53.672;10.064;2024-02-28T04:43:59;2.80;99.90
3275;DHT22;1649;53.672;10.064;2024-02-28T04:46:24;2.80;99.90
3275;DHT22;1649;53.672;10.064;2024-02-28T04:48:50;2.70;99.90
3275;DHT22;1649;53.672;10.064;2024-02-28T04:51:16;2.70;99.90
3275;DHT22;1649;53.672;10.064;2024-02-28T04:53:43;2.70;99.90
3275;DHT22;1649;53.672;10.064;2024-02-28T04:56:08;2.70;99.90
3275;DHT22;1649;53.672;10.064;2024-02-28T04:58:35;2.60;99.90
3275;DHT22;1649;53.672;10.064;2024-02-28T05:01:01;2.60;99.90
3275;DHT22;1649;53.672;10.064;2024-02-28T05:03:26;2.60;99.90
3275;DHT22;1649;53.672;10.064;2024-02-28T05:05:52;2.60;99.90
3275;DHT22;1649;53.672;10.064;2024-02-28T05:08:20;2.60;99.90
3275;DHT22;1649;53.672;10.064;2024-02-28T05:10:45;2.70;99.90
3275;DHT22;1649;53.672;10.064;2024-02-28T05:13:11;2.70;99.90
3275;DHT22;1649;53.672;10.064;2024-02-28T05:15:36;2.70;99.90
3275;DHT22;1649;53.672;10.064;2024-02-28T05:18:02;2.70;99.90
3275;DHT22;1649;53.672;10.064;2024-02-28T05:20:28;2.60;99.90
3275;DHT22;1649;53.672;10.064;2024-02-28T05:22:53;2.70;99.90
3275;DHT22;1649;53.672;10.064;2024-02-28T05:25:19;2.70;99.90
3275;DHT22;1649;53.672;10.064;2024-02-28T05:27:44;2.70;99.90
3275;DHT22;1649;53.672;10.064;2024-02-28T05:30:10;2.70;99.90
3275;DHT22;1649;53.672;10.064;2024-02-28T05:32:36;2.70;99.90
3275;DHT22;1649;53.672;10.064;2024-02-28T05:35:01;2.70;99.90
3275;DHT22;1649;53.672;10.064;2024-02-28T05:37:27;2.80;99.90
3275;DHT22;1649;53.672;10.064;2024-02-28T05:39:53;2.80;99.90
3275;DHT22;1649;53.672;10.064;2024-02-28T05:42:18;2.80;99.90
3275;DHT22;1649;53.672;10.064;2024-02-28T05:44:48;2.80;99.90
3275;DHT22;1649;53.672;10.064;2024-02-28T05:47:14;2.80;99.90
3275;DHT22;1649;53.672;10.064;2024-02-28T05:49:39;2.80;99.90
3275;DHT22;1649;53.672;10.064;2024-02-28T05:52:05;2.90;99.90
3275;DHT22;1649;53.672;10.064;2024-02-28T05:54:31;2.90;99.90
3275;DHT22;1649;53.672;10.064;2024-02-28T05:56:56;2.90;99.90
3275;DHT22;1649;53.672;10.064;2024-02-28T05:59:22;2.80;99.90
3275;DHT22;1649;53.672;10.064;2024-02-28T06:01:47;2.80;99.90
3275;DHT22;1649;53.672;10.064;2024-02-28T06:04:13;2.80;99.90
3275;DHT22;1649;53.672;10.064;2024-02-28T06:06:38;2.90;99.90
3275;DHT22;1649;53.672;10.064;2024-02-28T06:09:04;2.90;99.90
3275;DHT22;1649;53.672;10.064;2024-02-28T06:11:29;2.90;99.90
3275;DHT22;1649;53.672;10.064;2024-02-28T06:13:55;2.90;99.90
3275;DHT22;1649;53.672;10.064;2024-02-28T06:16:20;2.90;99.90
3275;DHT22;1649;53.672;10.064;2024-02-28T06:18:46;2.90;99.90
3275;DHT22;1649;53.672;10.064;2024-02-28T06:21:13;2.90;99.90
3275;DHT22;1649;53.672;10.064;2024-02-28T06:23:39;2.90;99.90
3275;DHT22;1649;53.672;10.064;2024-02-28T06:26:04;2.90;99.90
3275;DHT22;1649;53.672;10.064;2024-02-28T06:28:29;2.90;99.90
3275;DHT22;1649;53.672;10.064;2024-02-28T06:30:55;3.00;99.90
3275;DHT22;1649;53.672;10.064;2024-02-28T06:33:20;3.00;99.90
3275;DHT22;1649;53.672;10.064;2024-02-28T06:35:46;3.00;99.90
3275;DHT22;1649;53.672;10.064;2024-02-28T06:38:11;3.00;99.90
3275;DHT22;1649;53.672;10.064;2024-02-28T06:40:37;3.00;99.90
3275;DHT22;1649;53.672;10.064;2024-02-28T06:43:03;2.90;99.90
3275;DHT22;1649;53.672;10.064;2024-02-28T06:45:30;3.00;99.90
3275;DHT22;1649;53.672;10.064;2024-02-28T06:47:55;3.00;99.90
3275;DHT22;1649;53.672;10.064;2024-02-28T06:50:21;3.00;99.90
3275;DHT22;1649;53.672;10.064;2024-02-28T06:52:46;3.00;99.90
3275;DHT22;1649;53.672;10.064;2024-02-28T06:55:12;3.00;99.90
3275;DHT22;1649;53.672;10.064;2024-02-28T06:57:41;3.00;99.90
3275;DHT22;1649;53.672;10.064;2024-02-28T07:00:09;3.00;99.90
3275;DHT22;1649;53.672;10.064;2024-02-28T07:02:35;3.00;99.90
3275;DHT22;1649;53.672;10.064;2024-02-28T07:05:01;3.00;99.90
3275;DHT22;1649;53.672;10.064;2024-02-28T07:07:28;2.90;99.90
3275;DHT22;1649;53.672;10.064;2024-02-28T07:09:53;3.00;99.90
3275;DHT22;1649;53.672;10.064;2024-02-28T07:12:19;2.90;99.90
3275;DHT22;1649;53.672;10.064;2024-02-28T07:14:44;3.10;99.90
3275;DHT22;1649;53.672;10.064;2024-02-28T07:17:10;3.10;99.90
3275;DHT22;1649;53.672;10.064;2024-02-28T07:19:36;3.10;99.90
3275;DHT22;1649;53.672;10.064;2024-02-28T07:22:01;3.20;99.90
3275;DHT22;1649;53.672;10.064;2024-02-28T07:24:27;3.20;99.90
3275;DHT22;1649;53.672;10.064;2024-02-28T07:26:52;3.30;99.90
3275;DHT22;1649;53.672;10.064;2024-02-28T07:29:18;3.30;99.90
3275;DHT22;1649;53.672;10.064;2024-02-28T07:31:43;3.30;99.90
3275;DHT22;1649;53.672;10.064;2024-02-28T07:34:10;3.40;99.90
3275;DHT22;1649;53.672;10.064;2024-02-28T07:36:36;3.50;99.90
3275;DHT22;1649;53.672;10.064;2024-02-28T07:39:02;3.50;99.90
3275;DHT22;1649;53.672;10.064;2024-02-28T07:41:28;3.60;99.90
3275;DHT22;1649;53.672;10.064;2024-02-28T07:43:53;3.60;99.90
3275;DHT22;1649;53.672;10.064;2024-02-28T07:46:19;3.60;99.90
3275;DHT22;1649;53.672;10.064;2024-02-28T07:48:44;3.60;99.90
3275;DHT22;1649;53.672;10.064;2024-02-28T07:51:10;3.60;99.90
3275;DHT22;1649;53.672;10.064;2024-02-28T07:53:36;3.60;99.90
3275;DHT22;1649;53.672;10.064;2024-02-28T07:56:02;3.60;99.90
3275;DHT22;1649;53.672;10.064;2024-02-28T07:58:28;3.70;99.90
3275;DHT22;1649;53.672;10.064;2024-02-28T08:00:53;3.70;99.90
3275;DHT22;1649;53.672;10.064;2024-02-28T08:03:19;3.70;99.90
3275;DHT22;1649;53.672;10.064;2024-02-28T08:05:44;3.80;99.90
3275;DHT22;1649;53.672;10.064;2024-02-28T08:08:10;3.80;99.90
3275;DHT22;1649;53.672;10.064;2024-02-28T08:10:37;3.90;99.90
3275;DHT22;1649;53.672;10.064;2024-02-28T08:13:04;4.00;99.90
3275;DHT22;1649;53.672;10.064;2024-02-28T08:15:29;4.00;99.90
3275;DHT22;1649;53.672;10.064;2024-02-28T08:17:55;4.10;99.90
3275;DHT22;1649;53.672;10.064;2024-02-28T08:20:21;4.30;99.90
3275;DHT22;1649;53.672;10.064;2024-02-28T08:22:46;4.40;99.90
3275;DHT22;1649;53.672;10.064;2024-02-28T08:25:12;4.60;99.90
3275;DHT22;1649;53.672;10.064;2024-02-28T08:27:38;4.70;99.90
3275;DHT22;1649;53.672;10.064;2024-02-28T08:30:04;4.70;99.90
3275;DHT22;1649;53.672;10.064;2024-02-28T08:32:33;4.80;99.90
3275;DHT22;1649;53.672;10.064;2024-02-28T08:34:59;5.00;99.90
3275;DHT22;1649;53.672;10.064;2024-02-28T08:37:25;5.10;99.90
3275;DHT22;1649;53.672;10.064;2024-02-28T08:39:52;5.10;99.90
3275;DHT22;1649;53.672;10.064;2024-02-28T08:42:20;5.10;99.90
3275;DHT22;1649;53.672;10.064;2024-02-28T08:44:45;5.10;99.90
3275;DHT22;1649;53.672;10.064;2024-02-28T08:47:13;5.10;99.90
3275;DHT22;1649;53.672;10.064;2024-02-28T08:49:39;5.00;99.90
3275;DHT22;1649;53.672;10.064;2024-02-28T08:52:04;5.10;99.90
3275;DHT22;1649;53.672;10.064;2024-02-28T08:54:30;5.10;99.90
3275;DHT22;1649;53.672;10.064;2024-02-28T08:56:56;5.00;99.90
3275;DHT22;1649;53.672;10.064;2024-02-28T08:59:21;5.00;99.90
3275;DHT22;1649;53.672;10.064;2024-02-28T09:01:48;5.40;99.90
3275;DHT22;1649;53.672;10.064;2024-02-28T09:04:13;6.30;99.90
3275;DHT22;1649;53.672;10.064;2024-02-28T09:06:39;7.30;99.90
3275;DHT22;1649;53.672;10.064;2024-02-28T09:09:04;8.30;99.90
3275;DHT22;1649;53.672;10.064;2024-02-28T09:11:29;8.50;99.90
3275;DHT22;1649;53.672;10.064;2024-02-28T09:13:55;8.70;99.90
3275;DHT22;1649;53.672;10.064;2024-02-28T09:16:20;9.50;99.90
3275;DHT22;1649;53.672;10.064;2024-02-28T09:18:46;9.60;99.90
3275;DHT22;1649;53.672;10.064;2024-02-28T09:21:11;8.80;99.90
3275;DHT22;1649;53.672;10.064;2024-02-28T09:23:37;8.40;99.90
3275;DHT22;1649;53.672;10.064;2024-02-28T09:26:03;8.20;99.90
3275;DHT22;1649;53.672;10.064;2024-02-28T09:28:29;8.30;99.90
3275;DHT22;1649;53.672;10.064;2024-02-28T09:30:54;8.30;99.90
3275;DHT22;1649;53.672;10.064;2024-02-28T09:33:20;8.20;99.90
3275;DHT22;1649;53.672;10.064;2024-02-28T09:35:46;8.00;99.90
3275;DHT22;1649;53.672;10.064;2024-02-28T09:38:11;8.00;99.90
3275;DHT22;1649;53.672;10.064;2024-02-28T09:40:37;8.00;99.90
3275;DHT22;1649;53.672;10.064;2024-02-28T09:43:04;8.40;99.90
3275;DHT22;1649;53.672;10.064;2024-02-28T09:45:30;9.00;99.90
3275;DHT22;1649;53.672;10.064;2024-02-28T09:47:59;9.60;99.90
3275;DHT22;1649;53.672;10.064;2024-02-28T09:50:26;10.20;99.90
3275;DHT22;1649;53.672;10.064;2024-02-28T09:52:53;10.30;99.90
3275;DHT22;1649;53.672;10.064;2024-02-28T09:55:19;10.30;99.90
3275;DHT22;1649;53.672;10.064;2024-02-28T09:57:50;10.60;99.90
3275;DHT22;1649;53.672;10.064;2024-02-28T10:00:20;11.00;99.90
3275;DHT22;1649;53.672;10.064;2024-02-28T10:02:49;11.30;99.90
3275;DHT22;1649;53.672;10.064;2024-02-28T10:05:16;11.10;99.90
3275;DHT22;1649;53.672;10.064;2024-02-28T10:07:46;11.00;99.90
3275;DHT22;1649;53.672;10.064;2024-02-28T10:10:12;10.90;99.90
3275;DHT22;1649;53.672;10.064;2024-02-28T10:12:41;11.00;99.90
3275;DHT22;1649;53.672;10.064;2024-02-28T10:15:09;10.70;99.90
3275;DHT22;1649;53.672;10.064;2024-02-28T10:17:35;10.70;99.90
3275;DHT22;1649;53.672;10.064;2024-02-28T10:20:00;10.70;99.90
3275;DHT22;1649;53.672;10.064;2024-02-28T10:22:26;10.30;99.90
3275;DHT22;1649;53.672;10.064;2024-02-28T10:24:57;10.50;99.90
3275;DHT22;1649;53.672;10.064;2024-02-28T10:27:24;10.50;99.90
3275;DHT22;1649;53.672;10.064;2024-02-28T10:29:49;10.70;99.90
3275;DHT22;1649;53.672;10.064;2024-02-28T10:32:15;10.90;99.90
3275;DHT22;1649;53.672;10.064;2024-02-28T10:34:41;11.00;99.90
3275;DHT22;1649;53.672;10.064;2024-02-28T10:37:07;11.10;99.90
3275;DHT22;1649;53.672;10.064;2024-02-28T10:39:34;11.00;99.90
3275;DHT22;1649;53.672;10.064;2024-02-28T10:42:01;10.60;99.90
3275;DHT22;1649;53.672;10.064;2024-02-28T10:44:27;10.50;99.90
3275;DHT22;1649;53.672;10.064;2024-02-28T10:46:56;10.40;99.90
3275;DHT22;1649;53.672;10.064;2024-02-28T10:49:22;10.20;99.90
3275;DHT22;1649;53.672;10.064;2024-02-28T10:51:49;10.10;99.90
3275;DHT22;1649;53.672;10.064;2024-02-28T10:54:16;10.00;99.90
3275;DHT22;1649;53.672;10.064;2024-02-28T10:56:46;9.80;99.90
3275;DHT22;1649;53.672;10.064;2024-02-28T10:59:12;9.60;99.90
3275;DHT22;1649;53.672;10.064;2024-02-28T11:01:44;9.60;99.90
3275;DHT22;1649;53.672;10.064;2024-02-28T11:04:12;9.50;99.90
3275;DHT22;1649;53.672;10.064;2024-02-28T11:06:48;9.40;99.90
3275;DHT22;1649;53.672;10.064;2024-02-28T11:09:19;9.50;99.90
3275;DHT22;1649;53.672;10.064;2024-02-28T11:11:49;9.60;99.90
3275;DHT22;1649;53.672;10.064;2024-02-28T11:14:16;9.60;99.90
3275;DHT22;1649;53.672;10.064;2024-02-28T11:16:42;9.60;99.90
3275;DHT22;1649;53.672;10.064;2024-02-28T11:19:19;9.90;99.90
3275;DHT22;1649;53.672;10.064;2024-02-28T11:21:54;10.10;99.90
3275;DHT22;1649;53.672;10.064;2024-02-28T11:24:23;9.90;99.90
3275;DHT22;1649;53.672;10.064;2024-02-28T11:26:50;9.80;99.90
3275;DHT22;1649;53.672;10.064;2024-02-28T11:29:21;9.70;99.90
3275;DHT22;1649;53.672;10.064;2024-02-28T11:31:46;9.80;99.90
3275;DHT22;1649;53.672;10.064;2024-02-28T11:34:12;9.60;99.90
3275;DHT22;1649;53.672;10.064;2024-02-28T11:36:37;9.70;99.90
3275;DHT22;1649;53.672;10.064;2024-02-28T11:39:03;9.80;99.90
3275;DHT22;1649;53.672;10.064;2024-02-28T11:41:28;9.60;99.90
3275;DHT22;1649;53.672;10.064;2024-02-28T11:43:54;9.50;99.90
3275;DHT22;1649;53.672;10.064;2024-02-28T11:46:19;9.40;99.90
3275;DHT22;1649;53.672;10.064;2024-02-28T11:48:45;9.40;99.90
3275;DHT22;1649;53.672;10.064;2024-02-28T11:51:11;9.40;99.90
3275;DHT22;1649;53.672;10.064;2024-02-28T11:53:36;9.50;99.90
3275;DHT22;1649;53.672;10.064;2024-02-28T11:56:02;9.50;99.90
3275;DHT22;1649;53.672;10.064;2024-02-28T11:58:28;9.50;99.90
3275;DHT22;1649;53.672;10.064;2024-02-28T12:00:54;9.50;99.90
3275;DHT22;1649;53.672;10.064;2024-02-28T12:03:23;9.60;99.90
3275;DHT22;1649;53.672;10.064;2024-02-28T12:05:50;9.60;99.90
3275;DHT22;1649;53.672;10.064;2024-02-28T12:08:17;9.60;99.90
3275;DHT22;1649;53.672;10.064;2024-02-28T12:10:44;9.60;99.90
3275;DHT22;1649;53.672;10.064;2024-02-28T12:13:09;9.60;99.90
3275;DHT22;1649;53.672;10.064;2024-02-28T12:15:36;9.40;99.90
3275;DHT22;1649;53.672;10.064;2024-02-28T12:18:08;9.50;99.90
3275;DHT22;1649;53.672;10.064;2024-02-28T12:20:34;9.40;99.90
3275;DHT22;1649;53.672;10.064;2024-02-28T12:23:00;9.50;99.90
3275;DHT22;1649;53.672;10.064;2024-02-28T12:25:25;9.40;99.90
3275;DHT22;1649;53.672;10.064;2024-02-28T12:27:51;9.40;99.90
3275;DHT22;1649;53.672;10.064;2024-02-28T12:30:16;9.20;99.90
3275;DHT22;1649;53.672;10.064;2024-02-28T12:32:42;9.10;99.90
3275;DHT22;1649;53.672;10.064;2024-02-28T12:35:07;9.10;99.90
3275;DHT22;1649;53.672;10.064;2024-02-28T12:37:33;8.90;99.90
3275;DHT22;1649;53.672;10.064;2024-02-28T12:39:58;8.90;99.90
3275;DHT22;1649;53.672;10.064;2024-02-28T12:42:24;8.80;99.90
3275;DHT22;1649;53.672;10.064;2024-02-28T12:44:49;8.80;99.90
3275;DHT22;1649;53.672;10.064;2024-02-28T12:47:15;8.80;99.90
3275;DHT22;1649;53.672;10.064;2024-02-28T12:49:40;8.70;99.90
3275;DHT22;1649;53.672;10.064;2024-02-28T12:52:06;8.80;99.90
3275;DHT22;1649;53.672;10.064;2024-02-28T12:54:32;8.80;99.90
3275;DHT22;1649;53.672;10.064;2024-02-28T12:56:58;8.60;99.90
3275;DHT22;1649;53.672;10.064;2024-02-28T12:59:24;8.40;99.90
3275;DHT22;1649;53.672;10.064;2024-02-28T13:01:50;8.30;99.90
3275;DHT22;1649;53.672;10.064;2024-02-28T13:04:16;8.30;99.90
3275;DHT22;1649;53.672;10.064;2024-02-28T13:06:41;8.30;99.90
3275;DHT22;1649;53.672;10.064;2024-02-28T13:09:07;8.30;99.90
3275;DHT22;1649;53.672;10.064;2024-02-28T13:11:38;8.40;99.90
3275;DHT22;1649;53.672;10.064;2024-02-28T13:14:03;8.30;99.90
3275;DHT22;1649;53.672;10.064;2024-02-28T13:16:30;8.20;99.90
3275;DHT22;1649;53.672;10.064;2024-02-28T13:18:55;8.20;99.90
3275;DHT22;1649;53.672;10.064;2024-02-28T13:21:21;8.20;99.90
3275;DHT22;1649;53.672;10.064;2024-02-28T13:23:46;8.20;99.90
3275;DHT22;1649;53.672;10.064;2024-02-28T13:26:12;8.30;99.90
3275;DHT22;1649;53.672;10.064;2024-02-28T13:28:43;8.20;99.90
3275;DHT22;1649;53.672;10.064;2024-02-28T13:31:09;8.30;99.90
3275;DHT22;1649;53.672;10.064;2024-02-28T13:33:34;8.30;99.90
3275;DHT22;1649;53.672;10.064;2024-02-28T13:36:02;8.30;99.90
3275;DHT22;1649;53.672;10.064;2024-02-28T13:38:28;8.40;99.90
3275;DHT22;1649;53.672;10.064;2024-02-28T13:40:54;8.30;99.90
3275;DHT22;1649;53.672;10.064;2024-02-28T13:43:20;8.30;99.90
3275;DHT22;1649;53.672;10.064;2024-02-28T13:45:49;8.30;99.90
3275;DHT22;1649;53.672;10.064;2024-02-28T13:48:21;8.10;99.90
3275;DHT22;1649;53.672;10.064;2024-02-28T13:50:48;8.20;99.90
3275;DHT22;1649;53.672;10.064;2024-02-28T13:53:14;8.10;99.90
3275;DHT22;1649;53.672;10.064;2024-02-28T13:55:44;8.10;99.90
3275;DHT22;1649;53.672;10.064;2024-02-28T13:58:14;8.20;99.90
3275;DHT22;1649;53.672;10.064;2024-02-28T14:00:40;8.20;99.90
3275;DHT22;1649;53.672;10.064;2024-02-28T14:03:07;8.20;99.90
3275;DHT22;1649;53.672;10.064;2024-02-28T14:05:32;8.30;99.90
3275;DHT22;1649;53.672;10.064;2024-02-28T14:07:58;8.30;99.90
3275;DHT22;1649;53.672;10.064;2024-02-28T14:10:25;8.30;99.90
3275;DHT22;1649;53.672;10.064;2024-02-28T14:12:50;8.30;99.90
3275;DHT22;1649;53.672;10.064;2024-02-28T14:15:20;8.20;99.90
3275;DHT22;1649;53.672;10.064;2024-02-28T14:17:46;8.10;99.90
3275;DHT22;1649;53.672;10.064;2024-02-28T14:20:11;8.20;99.90
3275;DHT22;1649;53.672;10.064;2024-02-28T14:22:37;8.10;99.90
3275;DHT22;1649;53.672;10.064;2024-02-28T14:25:09;8.10;99.90
3275;DHT22;1649;53.672;10.064;2024-02-28T14:27:36;8.10;99.90
3275;DHT22;1649;53.672;10.064;2024-02-28T14:30:02;8.20;99.90
3275;DHT22;1649;53.672;10.064;2024-02-28T14:32:33;8.20;99.90
3275;DHT22;1649;53.672;10.064;2024-02-28T14:34:58;8.10;99.90
3275;DHT22;1649;53.672;10.064;2024-02-28T14:37:24;8.10;99.90
3275;DHT22;1649;53.672;10.064;2024-02-28T14:39:49;8.00;99.90
3275;DHT22;1649;53.672;10.064;2024-02-28T14:42:15;8.00;99.90
3275;DHT22;1649;53.672;10.064;2024-02-28T14:44:40;8.00;99.90
3275;DHT22;1649;53.672;10.064;2024-02-28T14:47:06;7.80;99.90
3275;DHT22;1649;53.672;10.064;2024-02-28T14:49:31;7.80;99.90
3275;DHT22;1649;53.672;10.064;2024-02-28T14:51:57;7.80;99.90
3275;DHT22;1649;53.672;10.064;2024-02-28T14:54:22;7.70;99.90
3275;DHT22;1649;53.672;10.064;2024-02-28T14:56:48;7.60;99.90
3275;DHT22;1649;53.672;10.064;2024-02-28T14:59:14;7.60;99.90
3275;DHT22;1649;53.672;10.064;2024-02-28T15:01:39;7.60;99.90
3275;DHT22;1649;53.672;10.064;2024-02-28T15:04:05;7.50;99.90
3275;DHT22;1649;53.672;10.064;2024-02-28T15:06:30;7.50;99.90
3275;DHT22;1649;53.672;10.064;2024-02-28T15:08:56;7.50;99.90
3275;DHT22;1649;53.672;10.064;2024-02-28T15:11:22;7.40;99.90
3275;DHT22;1649;53.672;10.064;2024-02-28T15:13:47;7.40;99.90
3275;DHT22;1649;53.672;10.064;2024-02-28T15:16:13;7.40;99.90
3275;DHT22;1649;53.672;10.064;2024-02-28T15:18:38;7.40;99.90
3275;DHT22;1649;53.672;10.064;2024-02-28T15:21:04;7.50;99.90
3275;DHT22;1649;53.672;10.064;2024-02-28T15:23:30;7.40;99.90
3275;DHT22;1649;53.672;10.064;2024-02-28T15:25:56;7.50;99.90
3275;DHT22;1649;53.672;10.064;2024-02-28T15:28:21;7.40;99.90
3275;DHT22;1649;53.672;10.064;2024-02-28T15:30:49;7.40;99.90
3275;DHT22;1649;53.672;10.064;2024-02-28T15:33:14;7.40;99.90
3275;DHT22;1649;53.672;10.064;2024-02-28T15:35:40;7.40;99.90
3275;DHT22;1649;53.672;10.064;2024-02-28T15:38:05;7.40;99.90
3275;DHT22;1649;53.672;10.064;2024-02-28T15:40:31;7.40;99.90
3275;DHT22;1649;53.672;10.064;2024-02-28T15:42:56;7.40;99.90
3275;DHT22;1649;53.672;10.064;2024-02-28T15:45:23;7.40;99.90
3275;DHT22;1649;53.672;10.064;2024-02-28T15:47:49;7.40;99.90
3275;DHT22;1649;53.672;10.064;2024-02-28T15:50:16;7.40;99.90
3275;DHT22;1649;53.672;10.064;2024-02-28T15:52:42;7.40;99.90